Fraziers Bottom, WV

8:22 AM EDT on October 01, 2016 (GMT -0400)
The Linde Farm in Ashton | | Change Station

Elev 692 ft 38.58 °N, 82.08 °W | Updated 35 seconds ago

Fog
Fog
54.0 °F
Feels Like 54.0 °F
N
0.0
Wind Variable Wind from SSW

Today
High -- | Low -- °F
--% Chance of Precip.
Yesterday
High -- | Low -- °F
Precip. -- in
Pressure 30.07 in
Visibility 0.2 miles
Clouds
Dew Point 53 °F
Humidity 98%
Rainfall 0.00 in
Snow Depth Not available.
7:24 AM 7:10 PM
New Moon, 0% visible
METAR KCRW 011154Z 00000KT 1/4SM FG VV001 13/13 A3008 RMK AO2 SLP182 70024 T01330128 10150 20133 53005 RVRNO
Pressure 30.07 in
Visibility 0.2 miles
Clouds
Dew Point 53 °F
Humidity 98%
Rainfall 0.00 in
Snow Depth Not available.
7:24 AM 7:10 PM
New Moon, 0% visible
METAR KCRW 011154Z 00000KT 1/4SM FG VV001 13/13 A3008 RMK AO2 SLP182 70024 T01330128 10150 20133 53005 RVRNO

10-Day Weather Forecast

Almanac

Astronomy

Oct. 01, 2016 Rise Set
Actual Time
Civil Twilight
Nautical Twilight
Astronomical Twilight
Moon
Length of Visible Light
Length of Day
Tomorrow will be .
, % of the Moon is Illuminated

Today's Extremes

State Highs State Lows

Community

WunderPhotos

Upload Photos

1,942,920 photos uploaded!

WunderBlog® & News

Nearby

Air Quality

  Air Quality AQ Index Pollutant
Not available.

Snow Depth

Station Depth Elevation

Earthquake Activity

City Distance Mag. Time & Date
Minimum magnitude displayed is 2.5.

Coastal Water Temperatures

Place Temperature

Stations

Nearby Weather Stations

Station Location Temp. Windchill Dew Point Humidity Wind Precip. Elev Updated Type
                   

Watches & Warnings

There are currently no watches in effect.